Escribe el Código OACI del Aeropuerto

Buscar por Aeropuerto o Ciudad

Información Meteorológica Actual

SAVC | General Enrique Mosconi International Airport

Comodoro Rivadavia, Chubut, Argentina

Última Actualización Hace 33 Minutos

Cielo Despejado

29 ºC de Temperatura

Vientos Leves a Moderados del SurEste

Temperatura

29 ºC

Temperatura del Punto de Rocío

01 ºC

Humedad Relativa

16.54 %

Dirección del Viento

SurEste (130º, Variando entre 100º y 170º)

Velocidad del Viento

9 km/h (05 kt)

Ráfagas

No Hay

Visibilidad

Sin Reducciones de Consideración

Presión Reducida a Nivel del Mar

1006 hPa (Hectopascales)

Capas de Nubes

No Hay

METAR SAVC 071400Z 13005KT 100V170 CAVOK 29/01 Q1006 RMK PP000

Pronóstico Meteorológico

SAVC | General Enrique Mosconi International Airport

Comodoro Rivadavia, Chubut, Argentina

Pronóstico válido para las próximas 21 Horas

En las próximas 2 horas se espera el comienzo de:

Cielo Parcialmente Nublado

Vientos Moderados del SurEste con Ráfagas

En 10 a 14 horas se espera el comienzo de:

Vientos Moderados del Sur

Temperatura Máxima

30 ºC en 0 Horas

Temperatura Mínima

12 ºC en 15 Horas

TAF SAVC 071100Z 0712/0812 VRB07KT CAVOK TX30/0715Z TN12/0806Z BECMG 0715/0717 13015G25KT 9999 FEW030 SCT050 BECMG 0801/0805 18010KT